Time,TemperatureF,DewpointF,PressureIn,WindDirection,WindDirectionDegrees,WindSpeedMPH,WindSpeedGustMPH,Humidity,HourlyPrecipIn,Conditions,Clouds,dailyrainin,SoftwareType,DateUTC
2013-07-30 00:00:00,86.0,63.5,29.96,North,0,0.0,0.0,47,0.00,,,0.00,WUHU216HW,2013-07-30 05:00:00,
2013-07-30 00:05:00,86.0,63.5,29.96,North,0,0.0,0.0,47,0.00,,,0.00,WUHU216HW,2013-07-30 05:05:00,
2013-07-30 00:30:00,85.7,63.1,29.96,North,0,0.0,0.0,47,0.00,,,0.00,WUHU216HW,2013-07-30 05:30:00,
2013-07-30 00:35:00,85.7,63.1,29.96,North,0,0.0,0.0,47,0.00,,,0.00,WUHU216HW,2013-07-30 05:35:00,
2013-07-30 01:00:00,84.8,63.5,29.96,North,0,0.0,0.0,49,0.00,,,0.00,WUHU216HW,2013-07-30 06:00:00,
2013-07-30 01:05:00,84.8,63.5,29.96,North,0,0.0,0.0,49,0.00,,,0.00,WUHU216HW,2013-07-30 06:05:00,
2013-07-30 01:30:00,83.9,63.4,29.96,North,0,0.0,0.0,50,0.00,,,0.00,WUHU216HW,2013-07-30 06:30:00,
2013-07-30 01:35:00,83.9,63.4,29.96,North,0,0.0,0.0,50,0.00,,,0.00,WUHU216HW,2013-07-30 06:35:00,
2013-07-30 02:00:00,83.0,64.0,29.96,North,0,0.0,0.0,53,0.00,,,0.00,WUHU216HW,2013-07-30 07:00:00,
2013-07-30 02:05:00,83.0,64.0,29.96,North,0,0.0,0.0,53,0.00,,,0.00,WUHU216HW,2013-07-30 07:05:00,
2013-07-30 02:30:00,82.1,65.3,29.96,North,0,0.0,0.0,57,0.00,,,0.00,WUHU216HW,2013-07-30 07:30:00,
2013-07-30 02:35:00,82.1,65.3,29.96,North,0,0.0,0.0,57,0.00,,,0.00,WUHU216HW,2013-07-30 07:35:00,
2013-07-30 03:00:00,81.4,66.2,29.97,North,0,0.0,0.0,60,0.00,,,0.00,WUHU216HW,2013-07-30 08:00:00,
2013-07-30 03:05:00,81.4,66.2,29.97,North,0,0.0,0.0,60,0.00,,,0.00,WUHU216HW,2013-07-30 08:05:00,
2013-07-30 03:30:00,80.6,66.9,29.98,North,0,0.0,0.0,63,0.00,,,0.00,WUHU216HW,2013-07-30 08:30:00,
2013-07-30 03:35:00,80.6,66.9,29.98,North,0,0.0,0.0,63,0.00,,,0.00,WUHU216HW,2013-07-30 08:35:00,
2013-07-30 04:00:00,79.9,68.9,29.98,North,0,0.0,0.0,69,0.00,,,0.00,WUHU216HW,2013-07-30 09:00:00,
2013-07-30 04:05:00,79.9,68.9,29.98,North,0,0.0,0.0,69,0.00,,,0.00,WUHU216HW,2013-07-30 09:05:00,
2013-07-30 04:30:00,79.4,69.1,29.99,North,0,0.0,0.0,71,0.00,,,0.00,WUHU216HW,2013-07-30 09:30:00,
2013-07-30 04:35:00,79.4,69.1,29.99,North,0,0.0,0.0,71,0.00,,,0.00,WUHU216HW,2013-07-30 09:35:00,
2013-07-30 05:00:00,78.8,70.2,29.99,North,0,0.0,0.0,75,0.00,,,0.00,WUHU216HW,2013-07-30 10:00:00,
2013-07-30 05:05:00,78.8,70.2,29.99,North,0,0.0,0.0,75,0.00,,,0.00,WUHU216HW,2013-07-30 10:05:00,
2013-07-30 05:30:00,78.5,69.8,30.00,North,0,0.0,0.0,75,0.00,,,0.00,WUHU216HW,2013-07-30 10:30:00,
2013-07-30 05:35:00,78.5,69.8,30.00,North,0,0.0,0.0,75,0.00,,,0.00,WUHU216HW,2013-07-30 10:35:00,
2013-07-30 06:00:00,78.3,70.1,30.00,North,0,0.0,0.0,76,0.00,,,0.00,WUHU216HW,2013-07-30 11:00:00,
2013-07-30 06:05:00,78.3,70.1,30.00,North,0,0.0,0.0,76,0.00,,,0.00,WUHU216HW,2013-07-30 11:05:00,
2013-07-30 06:30:00,78.3,70.5,30.03,North,0,0.0,0.0,77,0.00,,,0.00,WUHU216HW,2013-07-30 11:30:00,
2013-07-30 06:35:00,78.3,70.5,30.03,North,0,0.0,0.0,77,0.00,,,0.00,WUHU216HW,2013-07-30 11:35:00,
2013-07-30 07:00:00,78.1,69.9,30.04,North,0,0.0,0.0,76,0.00,,,0.00,WUHU216HW,2013-07-30 12:00:00,
2013-07-30 07:05:00,78.1,69.9,30.04,North,0,0.0,0.0,76,0.00,,,0.00,WUHU216HW,2013-07-30 12:05:00,
2013-07-30 07:30:00,78.5,70.3,30.06,North,0,0.0,0.0,76,0.00,,,0.00,WUHU216HW,2013-07-30 12:30:00,
2013-07-30 07:35:00,78.5,70.3,30.06,North,0,0.0,0.0,76,0.00,,,0.00,WUHU216HW,2013-07-30 12:35:00,
2013-07-30 08:00:00,78.7,70.8,30.06,North,0,0.0,0.0,77,0.00,,,0.00,WUHU216HW,2013-07-30 13:00:00,
2013-07-30 08:05:00,78.7,70.8,30.06,North,0,0.0,0.0,77,0.00,,,0.00,WUHU216HW,2013-07-30 13:05:00,
2013-07-30 08:30:00,79.0,70.7,30.06,North,0,0.0,0.0,76,0.00,,,0.00,WUHU216HW,2013-07-30 13:30:00,
2013-07-30 08:35:00,79.0,70.7,30.06,North,0,0.0,0.0,76,0.00,,,0.00,WUHU216HW,2013-07-30 13:35:00,
2013-07-30 09:00:00,80.3,71.6,30.06,North,0,0.0,0.0,75,0.00,,,0.00,WUHU216HW,2013-07-30 14:00:00,
2013-07-30 09:05:00,80.3,71.6,30.06,North,0,0.0,0.0,75,0.00,,,0.00,WUHU216HW,2013-07-30 14:05:00,
2013-07-30 09:30:00,81.5,72.0,30.06,North,0,0.0,0.0,73,0.00,,,0.00,WUHU216HW,2013-07-30 14:30:00,
2013-07-30 09:35:00,81.5,72.0,30.06,North,0,0.0,0.0,73,0.00,,,0.00,WUHU216HW,2013-07-30 14:35:00,
2013-07-30 10:00:00,82.4,72.5,30.04,North,0,0.0,0.0,72,0.00,,,0.00,WUHU216HW,2013-07-30 15:00:00,
2013-07-30 10:05:00,82.4,72.5,30.04,North,0,0.0,0.0,72,0.00,,,0.00,WUHU216HW,2013-07-30 15:05:00,
2013-07-30 10:30:00,83.9,72.2,30.03,North,0,0.0,0.0,68,0.00,,,0.00,WUHU216HW,2013-07-30 15:30:00,
2013-07-30 10:35:00,83.9,72.2,30.03,North,0,0.0,0.0,68,0.00,,,0.00,WUHU216HW,2013-07-30 15:35:00,
2013-07-30 11:00:00,85.3,72.2,30.03,North,0,0.0,0.0,65,0.00,,,0.00,WUHU216HW,2013-07-30 16:00:00,
2013-07-30 11:05:00,85.3,72.2,30.03,North,0,0.0,0.0,65,0.00,,,0.00,WUHU216HW,2013-07-30 16:05:00,
2013-07-30 11:30:00,86.9,72.8,30.03,North,0,0.0,0.0,63,0.00,,,0.00,WUHU216HW,2013-07-30 16:30:00,
2013-07-30 11:35:00,86.9,72.8,30.03,North,0,0.0,0.0,63,0.00,,,0.00,WUHU216HW,2013-07-30 16:35:00,
2013-07-30 12:00:00,88.9,72.8,30.02,North,0,0.0,0.0,59,0.00,,,0.00,WUHU216HW,2013-07-30 17:00:00,
2013-07-30 12:05:00,88.9,72.8,30.02,North,0,0.0,0.0,59,0.00,,,0.00,WUHU216HW,2013-07-30 17:05:00,
2013-07-30 12:30:00,90.0,73.3,30.01,North,0,0.0,0.0,58,0.00,,,0.00,WUHU216HW,2013-07-30 17:30:00,
2013-07-30 12:35:00,90.0,73.3,30.01,North,0,0.0,0.0,58,0.00,,,0.00,WUHU216HW,2013-07-30 17:35:00,
2013-07-30 13:00:00,91.4,72.4,30.00,North,0,0.0,0.0,54,0.00,,,0.00,WUHU216HW,2013-07-30 18:00:00,
2013-07-30 13:05:00,91.4,72.4,30.00,North,0,0.0,0.0,54,0.00,,,0.00,WUHU216HW,2013-07-30 18:05:00,
2013-07-30 13:30:00,92.0,72.9,30.00,North,0,0.0,0.0,54,0.00,,,0.00,WUHU216HW,2013-07-30 18:30:00,
2013-07-30 13:35:00,92.0,72.9,30.00,North,0,0.0,0.0,54,0.00,,,0.00,WUHU216HW,2013-07-30 18:35:00,
2013-07-30 14:00:00,92.7,73.0,29.99,North,0,0.0,0.0,53,0.00,,,0.00,WUHU216HW,2013-07-30 19:00:00,
2013-07-30 14:05:00,92.7,73.0,29.99,North,0,0.0,0.0,53,0.00,,,0.00,WUHU216HW,2013-07-30 19:05:00,
2013-07-30 14:30:00,94.3,72.3,29.98,North,0,0.0,0.0,49,0.00,,,0.00,WUHU216HW,2013-07-30 19:30:00,
2013-07-30 14:35:00,94.3,72.3,29.98,North,0,0.0,0.0,49,0.00,,,0.00,WUHU216HW,2013-07-30 19:35:00,
2013-07-30 15:00:00,95.2,73.1,29.98,North,0,0.0,0.0,49,0.00,,,0.00,WUHU216HW,2013-07-30 20:00:00,
2013-07-30 15:05:00,95.2,73.1,29.98,North,0,0.0,0.0,49,0.00,,,0.00,WUHU216HW,2013-07-30 20:05:00,
2013-07-30 15:30:00,96.1,72.6,29.97,North,0,0.0,0.0,47,0.00,,,0.00,WUHU216HW,2013-07-30 20:30:00,
2013-07-30 15:35:00,96.1,72.6,29.97,North,0,0.0,0.0,47,0.00,,,0.00,WUHU216HW,2013-07-30 20:35:00,
2013-07-30 16:00:00,96.8,72.5,29.97,North,0,0.0,0.0,46,0.00,,,0.00,WUHU216HW,2013-07-30 21:00:00,
2013-07-30 16:05:00,96.8,72.5,29.97,North,0,0.0,0.0,46,0.00,,,0.00,WUHU216HW,2013-07-30 21:05:00,
2013-07-30 16:30:00,96.8,72.5,29.96,North,0,0.0,0.0,46,0.00,,,0.00,WUHU216HW,2013-07-30 21:30:00,
2013-07-30 16:35:00,96.8,72.5,29.96,North,0,0.0,0.0,46,0.00,,,0.00,WUHU216HW,2013-07-30 21:35:00,
2013-07-30 17:00:00,97.2,70.9,29.95,North,0,0.0,0.0,43,0.00,,,0.00,WUHU216HW,2013-07-30 22:00:00,
2013-07-30 17:05:00,97.2,70.9,29.95,North,0,0.0,0.0,43,0.00,,,0.00,WUHU216HW,2013-07-30 22:05:00,
2013-07-30 17:30:00,97.6,72.5,29.95,North,0,0.0,0.0,45,0.00,,,0.00,WUHU216HW,2013-07-30 22:30:00,
2013-07-30 17:35:00,97.6,72.5,29.95,North,0,0.0,0.0,45,0.00,,,0.00,WUHU216HW,2013-07-30 22:35:00,
2013-07-30 18:00:00,96.8,70.6,29.94,North,0,0.0,0.0,43,0.00,,,0.00,WUHU216HW,2013-07-30 23:00:00,
2013-07-30 18:05:00,96.8,70.6,29.94,North,0,0.0,0.0,43,0.00,,,0.00,WUHU216HW,2013-07-30 23:05:00,
2013-07-30 18:30:00,96.1,69.3,29.94,North,0,0.0,0.0,42,0.00,,,0.00,WUHU216HW,2013-07-30 23:30:00,
2013-07-30 18:35:00,96.1,69.3,29.94,North,0,0.0,0.0,42,0.00,,,0.00,WUHU216HW,2013-07-30 23:35:00,
2013-07-30 19:30:00,94.7,68.6,29.94,North,0,0.0,0.0,43,0.00,,,0.00,WUHU216HW,2013-07-31 00:30:00,
2013-07-30 19:35:00,94.7,68.6,29.94,North,0,0.0,0.0,43,0.00,,,0.00,WUHU216HW,2013-07-31 00:35:00,
2013-07-30 20:00:00,93.8,68.4,29.95,North,0,0.0,0.0,44,0.00,,,0.00,WUHU216HW,2013-07-31 01:00:00,
2013-07-30 20:05:00,93.8,68.4,29.95,North,0,0.0,0.0,44,0.00,,,0.00,WUHU216HW,2013-07-31 01:05:00,
2013-07-30 20:30:00,92.9,68.2,29.96,North,0,0.0,0.0,45,0.00,,,0.00,WUHU216HW,2013-07-31 01:30:00,
2013-07-30 20:35:00,92.9,68.2,29.96,North,0,0.0,0.0,45,0.00,,,0.00,WUHU216HW,2013-07-31 01:35:00,
2013-07-30 21:00:00,92.0,67.4,29.96,North,0,0.0,0.0,45,0.00,,,0.00,WUHU216HW,2013-07-31 02:00:00,
2013-07-30 21:05:00,92.0,67.4,29.96,North,0,0.0,0.0,45,0.00,,,0.00,WUHU216HW,2013-07-31 02:05:00,
2013-07-30 21:30:00,90.5,67.4,29.96,North,0,0.0,0.0,47,0.00,,,0.00,WUHU216HW,2013-07-31 02:30:00,
2013-07-30 21:35:00,90.5,67.4,29.96,North,0,0.0,0.0,47,0.00,,,0.00,WUHU216HW,2013-07-31 02:35:00,
2013-07-30 22:00:00,89.8,66.8,29.97,North,0,0.0,0.0,47,0.00,,,0.00,WUHU216HW,2013-07-31 03:00:00,
2013-07-30 22:05:00,89.8,66.8,29.97,North,0,0.0,0.0,47,0.00,,,0.00,WUHU216HW,2013-07-31 03:05:00,
2013-07-30 22:30:00,88.9,66.7,29.97,North,0,0.0,0.0,48,0.00,,,0.00,WUHU216HW,2013-07-31 03:30:00,
2013-07-30 22:35:00,88.9,66.7,29.97,North,0,0.0,0.0,48,0.00,,,0.00,WUHU216HW,2013-07-31 03:35:00,
2013-07-30 23:00:00,88.2,66.1,29.97,North,0,0.0,0.0,48,0.00,,,0.00,WUHU216HW,2013-07-31 04:00:00,
2013-07-30 23:01:00,88.2,66.1,29.97,North,0,0.0,0.0,48,0.00,,,0.00,WUHU216HW,2013-07-31 04:01:00,
2013-07-30 23:06:00,88.2,66.1,29.97,North,0,0.0,0.0,48,0.00,,,0.00,WUHU216HW,2013-07-31 04:06:00,
2013-07-30 23:30:00,88.0,66.5,29.97,North,0,0.0,0.0,49,0.00,,,0.00,WUHU216HW,2013-07-31 04:30:00,
2013-07-30 23:35:00,88.0,66.5,29.97,North,0,0.0,0.0,49,0.00,,,0.00,WUHU216HW,2013-07-31 04:35:00,